Time;durP1;ratioP1;P1;durP2;ratioP2;P2;SDS_P1;SDS_P2;PMS_P1;PMS_P2;Temp;Humidity;BMP_temperature;BMP_pressure;BME280_temperature;BME280_humidity;BME280_pressure;Samples;Min_cycle;Max_cycle;Signal;HPM_P1;HPM_P2
2021/07/17 00:00:36;;;;;;;5.32;2.40;;;15.90;63.60;;;;;;5011523;28;20034;-85
2021/07/17 00:03:03;;;;;;;5.80;2.45;;;15.90;63.50;;;;;;5009964;28;20061;-86
2021/07/17 00:05:29;;;;;;;4.15;2.40;;;15.90;63.00;;;;;;5009569;28;20849;-84
2021/07/17 00:07:54;;;;;;;4.10;2.20;;;15.80;63.50;;;;;;5010437;28;20026;-85
2021/07/17 00:10:37;;;;;;;4.88;2.50;;;15.80;63.70;;;;;;5008735;28;20041;-85
2021/07/17 00:13:04;;;;;;;6.57;2.58;;;15.80;64.10;;;;;;5009388;28;20026;-81
2021/07/17 00:15:29;;;;;;;4.45;2.50;;;15.80;63.80;;;;;;5012348;28;20025;-81
2021/07/17 00:17:55;;;;;;;3.85;2.30;;;15.70;64.20;;;;;;5011002;28;20121;-85
2021/07/17 00:20:22;;;;;;;5.38;2.47;;;15.70;64.10;;;;;;5010016;28;20413;-82
2021/07/17 00:22:48;;;;;;;3.42;2.00;;;15.70;63.90;;;;;;5010621;28;20021;-82
2021/07/17 00:25:20;;;;;;;6.50;2.50;;;15.70;63.90;;;;;;5010054;28;20038;-81
2021/07/17 00:27:46;;;;;;;3.00;2.22;;;15.60;64.50;;;;;;5012453;28;20135;-82
2021/07/17 00:30:13;;;;;;;5.82;2.60;;;15.50;65.40;;;;;;5007746;28;20510;-81
2021/07/17 00:32:39;;;;;;;4.63;2.13;;;15.40;64.20;;;;;;5005559;28;20030;-81
2021/07/17 00:35:06;;;;;;;6.20;2.38;;;15.40;64.50;;;;;;5007636;28;20117;-83
2021/07/17 00:37:33;;;;;;;5.60;2.80;;;15.40;64.60;;;;;;5010024;28;20027;-82
2021/07/17 00:40:00;;;;;;;5.75;2.00;;;15.40;65.30;;;;;;5011908;28;20026;-82
2021/07/17 00:42:26;;;;;;;5.13;2.20;;;15.40;64.90;;;;;;5012133;28;20026;-82
2021/07/17 00:44:51;;;;;;;3.97;1.75;;;15.30;64.70;;;;;;5008509;28;20446;-82
2021/07/17 00:47:17;;;;;;;4.47;2.17;;;15.30;65.80;;;;;;5008977;28;20110;-83
2021/07/17 00:49:43;;;;;;;6.03;2.20;;;15.30;64.70;;;;;;5010096;28;20049;-81
2021/07/17 00:52:09;;;;;;;5.10;2.40;;;15.30;65.60;;;;;;5009573;28;20080;-83
2021/07/17 00:54:36;;;;;;;5.53;2.15;;;15.30;64.90;;;;;;5009965;28;20018;-82
2021/07/17 00:57:02;;;;;;;3.85;2.10;;;15.30;64.40;;;;;;5008069;28;20029;-81
2021/07/17 00:59:31;;;;;;;4.30;2.00;;;15.30;65.00;;;;;;5009460;28;20022;-82
2021/07/17 01:02:00;;;;;;;6.30;2.40;;;15.30;65.00;;;;;;5009496;28;20057;-85
2021/07/17 01:04:27;;;;;;;4.35;2.25;;;15.20;64.60;;;;;;5010625;28;20022;-82
2021/07/17 01:06:55;;;;;;;4.55;2.15;;;15.10;65.00;;;;;;5011285;28;20591;-82
2021/07/17 01:09:21;;;;;;;4.55;2.90;;;15.10;65.60;;;;;;5010764;28;20037;-82
2021/07/17 01:11:47;;;;;;;3.58;2.22;;;15.00;65.20;;;;;;5010863;28;20037;-83
2021/07/17 01:14:13;;;;;;;4.72;2.60;;;14.90;66.50;;;;;;5010558;28;20029;-83
2021/07/17 01:16:39;;;;;;;6.00;2.50;;;14.90;65.50;;;;;;5011200;28;20029;-82
2021/07/17 01:19:08;;;;;;;5.50;2.40;;;14.90;66.00;;;;;;5010676;28;20022;-81
2021/07/17 01:21:33;;;;;;;5.15;2.50;;;14.90;66.10;;;;;;5012354;28;20498;-82
2021/07/17 01:24:00;;;;;;;4.63;2.67;;;15.00;67.20;;;;;;5009063;28;20040;-83
2021/07/17 01:26:26;;;;;;;5.93;2.30;;;14.90;66.60;;;;;;5009096;28;20120;-82
2021/07/17 01:28:51;;;;;;;4.85;2.30;;;14.90;67.30;;;;;;5008367;28;20638;-82
2021/07/17 01:31:18;;;;;;;4.95;2.58;;;14.90;66.60;;;;;;5008291;28;20026;-84
2021/07/17 01:33:44;;;;;;;6.20;2.75;;;14.80;67.50;;;;;;5010332;28;20482;-82
2021/07/17 01:36:10;;;;;;;4.95;2.35;;;14.90;67.70;;;;;;5008132;28;20041;-81
2021/07/17 01:38:36;;;;;;;5.00;2.45;;;14.80;68.60;;;;;;5009413;28;20032;-89
2021/07/17 01:41:02;;;;;;;5.32;2.80;;;14.80;67.00;;;;;;5010007;28;20041;-82
2021/07/17 01:43:28;;;;;;;8.00;2.70;;;14.80;67.60;;;;;;5007965;28;20112;-82
2021/07/17 01:45:58;;;;;;;4.80;2.45;;;14.80;67.40;;;;;;5011212;28;20030;-82
2021/07/17 01:48:24;;;;;;;6.38;2.28;;;14.70;68.10;;;;;;5010554;28;20034;-84
2021/07/17 01:50:50;;;;;;;6.00;2.65;;;14.70;68.10;;;;;;5009946;28;20025;-80
2021/07/17 01:53:16;;;;;;;4.68;2.50;;;14.70;67.30;;;;;;5009778;28;20029;-81
2021/07/17 01:55:42;;;;;;;4.68;2.30;;;14.70;68.10;;;;;;5008620;28;20462;-81
2021/07/17 01:58:09;;;;;;;5.82;2.70;;;14.70;69.80;;;;;;5009408;28;20022;-81
2021/07/17 02:00:35;;;;;;;6.65;2.55;;;14.70;70.70;;;;;;5009562;28;20521;-80
2021/07/17 02:03:01;;;;;;;4.05;2.78;;;14.60;69.90;;;;;;5007742;28;20022;-80
2021/07/17 02:05:28;;;;;;;5.47;2.85;;;14.60;70.80;;;;;;5008269;28;20053;-80
2021/07/17 02:07:54;;;;;;;6.68;2.67;;;14.60;70.10;;;;;;5007721;28;20072;-80
2021/07/17 02:10:26;;;;;;;6.28;2.70;;;14.70;70.30;;;;;;5007658;28;20034;-81
2021/07/17 02:13:03;;;;;;;7.22;2.50;;;14.70;69.70;;;;;;5005901;28;20026;-82
2021/07/17 02:15:45;;;;;;;6.80;2.70;;;14.60;69.50;;;;;;5009295;28;20034;-80
2021/07/17 02:18:15;;;;;;;4.53;2.60;;;14.60;69.60;;;;;;5007579;28;20022;-82
2021/07/17 02:20:42;;;;;;;3.70;2.35;;;14.60;70.60;;;;;;5008894;28;20490;-82
2021/07/17 02:23:10;;;;;;;4.97;2.63;;;14.60;71.60;;;;;;5009848;28;20026;-82
2021/07/17 02:25:35;;;;;;;7.05;2.65;;;14.60;71.50;;;;;;5007789;28;20384;-82
2021/07/17 02:28:01;;;;;;;5.63;2.88;;;14.60;72.60;;;;;;5010701;28;20084;-83
2021/07/17 02:30:27;;;;;;;6.35;2.70;;;14.60;72.50;;;;;;5006818;28;20129;-84
2021/07/17 02:32:53;;;;;;;6.05;3.13;;;14.60;72.70;;;;;;5011822;28;20565;-82
2021/07/17 02:35:19;;;;;;;8.10;3.00;;;14.60;72.40;;;;;;5012381;28;20029;-83
2021/07/17 02:37:45;;;;;;;4.22;2.90;;;14.60;73.40;;;;;;5012804;28;20466;-83
2021/07/17 02:40:11;;;;;;;6.43;3.00;;;14.50;73.20;;;;;;5012565;28;20045;-83
2021/07/17 02:42:36;;;;;;;5.20;2.83;;;14.50;73.70;;;;;;5013141;28;20022;-83
2021/07/17 02:45:05;;;;;;;4.80;2.97;;;14.50;74.00;;;;;;5010534;28;20569;-84
2021/07/17 02:47:31;;;;;;;8.52;3.30;;;14.40;73.00;;;;;;5011069;28;20364;-84
2021/07/17 02:49:56;;;;;;;5.10;2.88;;;14.40;73.80;;;;;;5009786;28;20479;-84
2021/07/17 02:52:22;;;;;;;7.50;3.08;;;14.40;74.60;;;;;;4996289;28;20084;-84
2021/07/17 02:54:47;;;;;;;6.93;3.28;;;14.30;74.50;;;;;;5013752;28;20029;-84
2021/07/17 02:57:13;;;;;;;5.30;3.25;;;14.30;74.30;;;;;;5013195;28;20372;-83
2021/07/17 02:59:39;;;;;;;7.68;3.40;;;14.30;75.00;;;;;;5011582;28;20037;-83
2021/07/17 03:02:04;;;;;;;5.63;3.45;;;14.30;75.80;;;;;;5010091;28;20092;-83
2021/07/17 03:04:30;;;;;;;4.30;2.88;;;14.20;75.90;;;;;;5011414;28;20022;-83
2021/07/17 03:06:55;;;;;;;7.18;3.03;;;14.30;75.00;;;;;;5013700;28;20042;-83
2021/07/17 03:09:21;;;;;;;5.97;3.03;;;14.20;75.10;;;;;;5013608;28;20026;-84
2021/07/17 03:11:47;;;;;;;5.32;3.08;;;14.20;76.50;;;;;;5012638;28;20033;-82
2021/07/17 03:14:12;;;;;;;5.57;3.30;;;14.20;75.70;;;;;;5010291;28;20034;-82
2021/07/17 03:16:38;;;;;;;6.55;3.22;;;14.20;75.90;;;;;;5010312;28;20023;-83
2021/07/17 03:19:04;;;;;;;6.00;3.10;;;14.10;76.20;;;;;;5013554;28;20523;-83
2021/07/17 03:21:30;;;;;;;7.60;3.25;;;14.10;75.10;;;;;;5012439;28;20518;-82
2021/07/17 03:23:56;;;;;;;6.22;3.35;;;14.10;76.70;;;;;;5010228;28;20054;-83
2021/07/17 03:26:23;;;;;;;8.52;3.67;;;14.10;77.40;;;;;;5010146;28;20034;-83
2021/07/17 03:28:49;;;;;;;6.13;3.00;;;14.00;76.70;;;;;;5011167;28;20068;-84
2021/07/17 03:31:15;;;;;;;7.90;3.08;;;14.00;76.20;;;;;;5011462;28;20506;-83
2021/07/17 03:33:41;;;;;;;6.47;3.22;;;14.00;76.20;;;;;;5014440;28;20100;-81
2021/07/17 03:36:06;;;;;;;7.30;3.20;;;14.00;75.50;;;;;;5012408;28;20413;-81
2021/07/17 03:38:32;;;;;;;7.20;3.05;;;14.00;76.00;;;;;;5011509;28;20026;-82
2021/07/17 03:40:58;;;;;;;6.35;3.22;;;14.00;75.70;;;;;;5010164;28;20041;-81
2021/07/17 03:43:23;;;;;;;5.28;3.17;;;13.90;75.80;;;;;;5012725;28;20018;-81
2021/07/17 03:45:49;;;;;;;6.57;3.10;;;13.90;75.70;;;;;;5013262;28;20037;-82
2021/07/17 03:48:14;;;;;;;7.88;3.40;;;13.90;76.70;;;;;;5010571;28;20134;-81
2021/07/17 03:50:40;;;;;;;6.03;3.13;;;13.90;74.70;;;;;;5009641;28;20029;-82
2021/07/17 03:53:06;;;;;;;8.45;3.50;;;13.80;76.10;;;;;;5006579;28;20030;-81
2021/07/17 03:55:32;;;;;;;4.82;3.22;;;13.80;75.90;;;;;;5012292;28;20084;-81
2021/07/17 03:57:57;;;;;;;5.63;3.33;;;13.70;76.50;;;;;;5012490;28;20022;-82
2021/07/17 04:00:23;;;;;;;7.13;3.17;;;13.80;75.50;;;;;;5011325;28;20490;-82
2021/07/17 04:02:49;;;;;;;5.80;3.30;;;13.70;77.50;;;;;;5009611;28;20424;-82
2021/07/17 04:05:16;;;;;;;5.35;3.47;;;13.70;77.40;;;;;;5010111;28;20034;-81
2021/07/17 04:07:43;;;;;;;5.82;3.45;;;13.70;75.90;;;;;;5010532;28;20497;-83
2021/07/17 04:10:10;;;;;;;5.65;3.13;;;13.70;75.90;;;;;;5010249;28;20025;-83
2021/07/17 04:12:37;;;;;;;8.43;3.67;;;13.70;75.80;;;;;;5011550;28;20417;-82
2021/07/17 04:15:05;;;;;;;6.93;3.90;;;13.60;74.70;;;;;;5010063;28;20033;-82
2021/07/17 04:17:32;;;;;;;4.90;3.20;;;13.60;75.60;;;;;;5008308;28;20037;-81
2021/07/17 04:19:57;;;;;;;6.30;3.17;;;13.60;76.30;;;;;;5009976;28;20045;-82
2021/07/17 04:22:23;;;;;;;6.78;3.28;;;13.60;76.30;;;;;;5010258;28;20445;-82
2021/07/17 04:24:49;;;;;;;5.88;3.53;;;13.60;76.10;;;;;;5013137;28;20201;-81
2021/07/17 04:27:15;;;;;;;7.45;3.70;;;13.60;75.60;;;;;;5009880;28;20037;-82
2021/07/17 04:29:41;;;;;;;7.40;3.20;;;13.50;75.80;;;;;;5009573;28;20320;-81
2021/07/17 04:32:07;;;;;;;6.88;3.63;;;13.50;75.10;;;;;;5008987;28;20021;-81
2021/07/17 04:34:33;;;;;;;10.48;3.80;;;13.50;75.10;;;;;;5009667;28;20113;-82
2021/07/17 04:36:59;;;;;;;8.75;3.25;;;13.50;76.80;;;;;;5010982;28;20022;-82
2021/07/17 04:39:24;;;;;;;9.70;3.90;;;13.50;76.80;;;;;;5008819;28;20030;-82
2021/07/17 04:41:50;;;;;;;7.00;3.65;;;13.50;76.30;;;;;;5011942;28;20036;-81
2021/07/17 04:44:16;;;;;;;6.07;3.30;;;13.50;77.60;;;;;;5009416;28;20034;-81
2021/07/17 04:46:41;;;;;;;7.15;3.95;;;13.50;76.90;;;;;;5007486;28;20030;-81
2021/07/17 04:49:07;;;;;;;6.30;3.67;;;13.50;78.70;;;;;;5011127;28;20101;-81
2021/07/17 04:51:32;;;;;;;8.20;3.40;;;13.50;77.70;;;;;;5002089;28;20501;-81
2021/07/17 04:53:59;;;;;;;7.20;3.65;;;13.50;78.00;;;;;;5005980;28;20054;-82
2021/07/17 04:56:24;;;;;;;10.40;4.80;;;13.50;79.20;;;;;;5008402;28;20025;-80
2021/07/17 04:58:50;;;;;;;7.30;3.42;;;13.50;77.80;;;;;;5009771;28;20450;-82
2021/07/17 05:01:16;;;;;;;8.20;4.03;;;13.60;78.20;;;;;;5009705;28;20042;-83
2021/07/17 05:03:41;;;;;;;7.13;4.05;;;13.60;79.50;;;;;;5009187;28;20491;-82
2021/07/17 05:06:07;;;;;;;7.78;4.10;;;13.60;78.30;;;;;;5006594;28;20034;-83
2021/07/17 05:08:33;;;;;;;6.50;3.80;;;13.50;78.40;;;;;;5008528;28;20018;-81
2021/07/17 05:10:59;;;;;;;6.55;3.75;;;13.50;77.90;;;;;;5008399;28;20057;-83
2021/07/17 05:13:24;;;;;;;5.63;3.97;;;13.50;78.00;;;;;;5008570;28;20097;-82
2021/07/17 05:15:50;;;;;;;7.82;3.90;;;13.50;79.00;;;;;;5007001;28;20478;-84
2021/07/17 05:18:16;;;;;;;7.82;3.83;;;13.60;79.00;;;;;;5007141;28;20029;-85
2021/07/17 05:20:43;;;;;;;9.38;4.50;;;13.60;80.00;;;;;;5009203;28;20042;-85
2021/07/17 05:23:10;;;;;;;8.65;3.85;;;13.60;78.80;;;;;;5008446;28;20022;-85
2021/07/17 05:25:37;;;;;;;9.23;4.40;;;13.60;78.30;;;;;;5007041;28;20030;-88
2021/07/17 05:28:03;;;;;;;7.32;4.10;;;13.70;80.50;;;;;;5010612;28;20030;-86
2021/07/17 05:30:30;;;;;;;8.77;3.95;;;13.70;80.80;;;;;;5002728;28;20882;-86
2021/07/17 05:32:55;;;;;;;6.75;4.07;;;13.70;81.10;;;;;;5008206;28;20038;-85
2021/07/17 05:35:21;;;;;;;7.20;4.20;;;13.70;80.30;;;;;;5007784;28;20033;-85
2021/07/17 05:37:47;;;;;;;9.10;4.30;;;13.80;79.10;;;;;;5009732;28;20128;-85
2021/07/17 05:40:14;;;;;;;7.40;4.30;;;13.80;79.50;;;;;;5009643;28;20172;-84
2021/07/17 05:42:39;;;;;;;8.85;4.10;;;13.90;78.60;;;;;;4994607;28;20022;-85
2021/07/17 05:45:05;;;;;;;8.00;3.85;;;14.00;79.00;;;;;;4995910;28;20026;-84
2021/07/17 05:47:32;;;;;;;6.32;4.30;;;14.00;79.30;;;;;;4997999;28;20486;-84
2021/07/17 05:49:57;;;;;;;7.55;3.97;;;14.10;80.00;;;;;;4994190;28;20134;-85
2021/07/17 05:52:23;;;;;;;7.53;4.00;;;14.00;80.00;;;;;;4994712;28;20125;-82
2021/07/17 05:54:49;;;;;;;5.35;3.97;;;14.10;79.40;;;;;;5009613;28;20026;-84
2021/07/17 05:57:14;;;;;;;7.15;3.92;;;14.10;79.70;;;;;;4998721;28;20469;-84
2021/07/17 05:59:40;;;;;;;6.15;3.75;;;14.20;78.90;;;;;;5006330;28;20037;-84
2021/07/17 06:02:06;;;;;;;9.77;4.40;;;14.20;78.40;;;;;;5004917;28;20549;-86
2021/07/17 06:04:32;;;;;;;5.40;3.50;;;14.30;78.10;;;;;;5009528;28;20030;-83
2021/07/17 06:06:58;;;;;;;6.70;4.10;;;14.30;78.90;;;;;;5016148;28;20446;-84
2021/07/17 06:09:24;;;;;;;8.07;4.70;;;14.40;79.00;;;;;;5011150;28;20089;-84
2021/07/17 06:11:51;;;;;;;8.90;4.32;;;14.50;79.00;;;;;;5007345;28;20101;-85
2021/07/17 06:14:17;;;;;;;7.85;4.25;;;14.50;80.10;;;;;;5004581;28;20030;-84
2021/07/17 06:16:43;;;;;;;7.15;4.13;;;14.50;79.00;;;;;;5014042;28;20037;-83
2021/07/17 06:19:09;;;;;;;9.25;4.00;;;14.60;79.60;;;;;;4998041;28;20088;-84
2021/07/17 06:21:34;;;;;;;6.80;3.85;;;14.70;80.10;;;;;;5004267;28;20117;-83
2021/07/17 06:24:00;;;;;;;7.60;3.75;;;14.70;79.00;;;;;;5012638;28;20042;-83
2021/07/17 06:26:26;;;;;;;8.40;3.95;;;14.80;78.10;;;;;;5013729;28;20022;-87
2021/07/17 06:28:51;;;;;;;9.18;4.40;;;14.80;77.90;;;;;;5012341;28;20128;-86
2021/07/17 06:31:19;;;;;;;7.22;3.90;;;14.90;78.10;;;;;;5014002;28;20034;-86
2021/07/17 06:33:48;;;;;;;7.70;4.10;;;14.90;77.90;;;;;;5016984;28;20042;-86
2021/07/17 06:36:18;;;;;;;6.03;3.60;;;14.90;79.30;;;;;;5015459;28;20034;-86
2021/07/17 06:38:44;;;;;;;7.22;3.90;;;15.00;79.10;;;;;;5013462;28;20026;-80
2021/07/17 06:41:11;;;;;;;7.43;3.67;;;15.10;79.20;;;;;;5011879;28;20410;-80
2021/07/17 06:43:36;;;;;;;9.07;3.85;;;15.10;78.60;;;;;;5015295;28;20096;-78
2021/07/17 06:46:03;;;;;;;7.70;3.65;;;15.20;78.40;;;;;;5016250;28;20651;-76
2021/07/17 06:48:29;;;;;;;6.30;3.40;;;15.30;78.00;;;;;;5015402;28;20021;-76
2021/07/17 06:50:55;;;;;;;6.90;3.47;;;15.30;77.90;;;;;;5012445;28;20048;-77
2021/07/17 06:53:21;;;;;;;7.15;3.17;;;15.40;77.70;;;;;;5014397;28;20026;-76
2021/07/17 06:55:47;;;;;;;6.40;3.10;;;15.50;77.60;;;;;;5014800;28;20033;-76
2021/07/17 06:58:13;;;;;;;6.40;3.40;;;15.60;77.60;;;;;;5016358;28;20029;-76
2021/07/17 07:00:39;;;;;;;5.32;3.00;;;15.60;77.60;;;;;;5015296;28;20037;-76
2021/07/17 07:03:05;;;;;;;5.90;3.10;;;15.70;77.00;;;;;;5015357;28;20056;-77
2021/07/17 07:05:30;;;;;;;5.55;3.20;;;15.70;76.30;;;;;;5014320;28;20431;-76
2021/07/17 07:07:56;;;;;;;5.40;3.10;;;15.70;76.10;;;;;;5014572;28;20025;-81
2021/07/17 07:10:22;;;;;;;5.57;3.13;;;15.80;76.30;;;;;;5015112;28;20048;-80
2021/07/17 07:12:49;;;;;;;6.47;3.03;;;15.90;75.80;;;;;;5016143;28;20025;-80
2021/07/17 07:15:15;;;;;;;4.65;2.85;;;15.90;75.70;;;;;;5011628;28;20426;-76
2021/07/17 07:17:40;;;;;;;4.43;2.55;;;16.00;75.50;;;;;;5012535;28;20026;-77
2021/07/17 07:20:08;;;;;;;6.07;2.78;;;16.10;75.80;;;;;;5011073;28;20117;-76
2021/07/17 07:22:33;;;;;;;6.32;2.83;;;16.10;75.60;;;;;;5010905;28;20026;-79
2021/07/17 07:24:59;;;;;;;7.50;2.72;;;16.20;75.30;;;;;;5012626;28;20116;-77
2021/07/17 07:27:25;;;;;;;6.35;3.10;;;16.30;75.50;;;;;;5013264;28;20022;-77
2021/07/17 07:29:51;;;;;;;5.78;2.95;;;16.30;74.40;;;;;;5009921;28;20045;-76
2021/07/17 07:32:16;;;;;;;5.20;2.78;;;16.30;74.30;;;;;;5011447;28;20160;-77
2021/07/17 07:34:42;;;;;;;4.93;3.00;;;16.40;74.40;;;;;;5011273;28;20030;-77
2021/07/17 07:37:08;;;;;;;5.07;3.00;;;16.40;74.40;;;;;;5013188;28;20026;-77
2021/07/17 07:39:34;;;;;;;6.07;2.70;;;16.50;73.90;;;;;;5014547;28;20030;-76
2021/07/17 07:42:00;;;;;;;6.00;3.10;;;16.60;73.10;;;;;;5010920;28;20517;-76
2021/07/17 07:44:25;;;;;;;3.10;2.60;;;16.60;72.70;;;;;;5005687;28;20017;-77
2021/07/17 07:46:53;;;;;;;4.80;2.92;;;16.70;72.80;;;;;;5012718;28;20129;-76
2021/07/17 07:49:18;;;;;;;4.85;2.58;;;16.70;72.50;;;;;;5012221;28;20065;-77
2021/07/17 07:51:44;;;;;;;4.75;2.70;;;16.80;72.30;;;;;;5013656;28;20522;-77
2021/07/17 07:54:10;;;;;;;4.13;2.60;;;16.90;70.50;;;;;;5011086;28;20601;-77
2021/07/17 07:56:36;;;;;;;4.63;2.75;;;16.90;69.90;;;;;;5012143;28;20026;-78
2021/07/17 07:59:01;;;;;;;5.28;2.78;;;16.90;69.40;;;;;;5012256;28;20398;-76
2021/07/17 08:01:27;;;;;;;5.78;2.75;;;16.90;68.90;;;;;;5009726;28;20038;-77
2021/07/17 08:03:52;;;;;;;4.88;2.70;;;17.00;68.50;;;;;;5013226;28;20390;-78
2021/07/17 08:06:18;;;;;;;5.43;2.90;;;17.00;68.80;;;;;;5010883;28;20491;-77
2021/07/17 08:08:44;;;;;;;5.47;2.50;;;17.10;69.00;;;;;;5012138;28;20435;-76
2021/07/17 08:11:09;;;;;;;8.18;3.45;;;17.10;68.70;;;;;;5011637;28;20565;-87
2021/07/17 08:13:35;;;;;;;3.85;2.70;;;17.20;70.20;;;;;;5008060;28;20105;-79
2021/07/17 08:16:01;;;;;;;6.53;3.00;;;17.30;70.40;;;;;;5011099;28;20398;-76
2021/07/17 08:18:27;;;;;;;3.97;2.70;;;17.30;68.90;;;;;;5001916;28;20022;-76
2021/07/17 08:20:53;;;;;;;4.88;2.53;;;17.30;68.40;;;;;;5005077;28;20092;-77
2021/07/17 08:23:18;;;;;;;7.75;2.70;;;17.40;67.70;;;;;;5001436;28;20033;-76
2021/07/17 08:25:44;;;;;;;5.57;2.95;;;17.40;67.40;;;;;;4998060;28;20526;-77
2021/07/17 08:28:10;;;;;;;3.53;2.55;;;17.50;66.60;;;;;;4998216;28;20113;-77
2021/07/17 08:30:37;;;;;;;5.72;2.70;;;17.50;67.00;;;;;;4997877;28;20053;-76
2021/07/17 08:33:04;;;;;;;5.82;2.63;;;17.50;67.40;;;;;;4998231;28;20023;-76
2021/07/17 08:35:29;;;;;;;4.88;2.88;;;17.60;68.20;;;;;;5000465;28;20025;-77
2021/07/17 08:37:55;;;;;;;5.65;2.72;;;17.70;67.80;;;;;;5008757;28;20092;-76
2021/07/17 08:40:21;;;;;;;6.03;2.78;;;17.80;66.70;;;;;;5006604;28;20026;-76
2021/07/17 08:42:51;;;;;;;5.00;2.65;;;17.80;66.90;;;;;;4997552;28;20072;-77
2021/07/17 08:45:17;;;;;;;3.45;2.70;;;17.90;66.90;;;;;;5009872;28;20101;-78
2021/07/17 08:47:44;;;;;;;5.63;3.00;;;18.00;66.10;;;;;;5000605;28;20085;-78
2021/07/17 08:50:23;;;;;;;4.38;2.83;;;18.00;66.40;;;;;;4998631;28;20022;-79
2021/07/17 08:52:58;;;;;;;4.63;2.83;;;18.20;66.60;;;;;;4991962;28;20372;-78
2021/07/17 08:55:27;;;;;;;5.32;2.88;;;18.20;65.70;;;;;;4999938;28;20026;-76
2021/07/17 08:57:54;;;;;;;7.32;3.25;;;18.30;65.50;;;;;;5004138;28;20076;-77
2021/07/17 09:00:35;;;;;;;4.80;2.65;;;18.30;65.00;;;;;;5010646;28;20042;-76
2021/07/17 09:03:03;;;;;;;4.28;2.63;;;18.40;65.80;;;;;;4999445;28;20048;-76
2021/07/17 09:05:32;;;;;;;4.93;2.75;;;18.50;66.00;;;;;;5006839;28;20041;-77
2021/07/17 09:07:58;;;;;;;5.65;2.80;;;18.60;65.10;;;;;;5008531;28;20820;-75
2021/07/17 09:10:28;;;;;;;4.45;2.50;;;18.70;63.60;;;;;;5010138;28;20030;-74
2021/07/17 09:13:10;;;;;;;4.38;2.58;;;18.70;64.10;;;;;;5009376;28;20553;-75
2021/07/17 09:15:39;;;;;;;7.63;3.25;;;18.80;64.50;;;;;;5010500;28;20064;-75
2021/07/17 09:18:08;;;;;;;3.85;2.78;;;18.90;65.00;;;;;;5009126;28;20096;-75
2021/07/17 09:20:35;;;;;;;5.50;2.90;;;18.90;63.60;;;;;;5008556;28;20061;-75
2021/07/17 09:23:04;;;;;;;4.70;2.95;;;18.90;64.40;;;;;;5008314;28;20091;-75
2021/07/17 09:25:41;;;;;;;5.63;3.05;;;19.00;63.30;;;;;;5010662;28;20058;-75
2021/07/17 09:28:33;;;;;;;5.60;2.60;;;19.10;63.60;;;;;;5011405;28;20028;-75
2021/07/17 09:31:00;;;;;;;5.25;2.70;;;19.20;64.30;;;;;;5005945;28;20054;-76
2021/07/17 09:33:28;;;;;;;6.28;2.67;;;19.30;63.20;;;;;;5010034;28;20053;-75
2021/07/17 09:35:56;;;;;;;3.65;2.75;;;19.40;63.40;;;;;;5008755;28;20010;-75
2021/07/17 09:38:23;;;;;;;5.97;2.70;;;19.40;62.80;;;;;;5007582;28;20030;-75
2021/07/17 09:40:50;;;;;;;5.65;2.35;;;19.40;62.90;;;;;;5005372;28;20541;-75
2021/07/17 09:43:45;;;;;;;3.45;2.42;;;19.50;59.70;;;;;;5010155;28;20030;-75
2021/07/17 09:46:18;;;;;;;6.35;2.78;;;19.60;59.40;;;;;;4990336;28;20057;-76
2021/07/17 09:48:52;;;;;;;5.22;2.88;;;19.60;58.70;;;;;;5009775;28;20034;-75
2021/07/17 09:51:20;;;;;;;5.32;2.80;;;19.70;59.50;;;;;;5008510;28;20030;-76
2021/07/17 09:53:51;;;;;;;3.53;2.30;;;19.80;59.30;;;;;;5008819;28;20032;-75
2021/07/17 09:56:28;;;;;;;4.18;2.40;;;19.90;58.00;;;;;;5008686;28;20038;-75
2021/07/17 09:58:57;;;;;;;5.75;2.88;;;20.00;59.20;;;;;;5008858;28;20085;-75
2021/07/17 10:01:28;;;;;;;4.43;2.45;;;20.00;57.60;;;;;;5008881;28;20576;-75
2021/07/17 10:04:06;;;;;;;5.93;2.65;;;20.10;56.00;;;;;;5008271;28;20050;-75
2021/07/17 10:06:39;;;;;;;4.57;2.40;;;20.20;56.10;;;;;;5011258;28;20498;-75
2021/07/17 10:09:13;;;;;;;4.68;2.72;;;20.30;55.50;;;;;;5008795;28;20037;-75
2021/07/17 10:11:39;;;;;;;4.82;2.55;;;20.30;55.90;;;;;;5008332;28;20640;-75
2021/07/17 10:14:20;;;;;;;6.50;2.80;;;20.30;56.00;;;;;;5005209;28;20116;-79
2021/07/17 10:16:49;;;;;;;4.82;2.65;;;20.40;53.10;;;;;;4996253;28;20725;-74
2021/07/17 10:19:16;;;;;;;4.55;2.63;;;20.40;53.50;;;;;;5004422;28;20032;-79
2021/07/17 10:21:43;;;;;;;4.57;2.65;;;20.50;54.30;;;;;;5011487;28;20085;-76
2021/07/17 10:24:11;;;;;;;4.80;2.47;;;20.50;53.30;;;;;;5004632;28;20057;-75
2021/07/17 10:26:38;;;;;;;5.65;2.95;;;20.50;54.10;;;;;;5003977;28;20018;-74
2021/07/17 10:29:09;;;;;;;4.95;2.58;;;20.70;53.00;;;;;;5007877;28;20049;-75
2021/07/17 10:31:36;;;;;;;5.18;2.65;;;20.70;54.20;;;;;;5008397;28;20026;-76
2021/07/17 10:34:03;;;;;;;4.47;2.55;;;20.80;53.50;;;;;;5008809;28;20022;-75
2021/07/17 10:36:30;;;;;;;5.15;2.83;;;20.90;54.10;;;;;;5009251;28;20034;-79
2021/07/17 10:39:01;;;;;;;5.57;2.97;;;20.90;52.80;;;;;;5006971;28;20122;-80
2021/07/17 10:41:30;;;;;;;5.10;2.92;;;20.90;53.80;;;;;;4999698;28;20068;-83
2021/07/17 10:43:56;;;;;;;7.63;2.80;;;20.90;52.70;;;;;;5007722;28;20053;-74
2021/07/17 10:46:34;;;;;;;4.70;2.72;;;20.90;51.50;;;;;;5008249;28;20081;-75
2021/07/17 10:49:03;;;;;;;5.38;2.72;;;21.00;53.40;;;;;;5006838;28;20025;-75
2021/07/17 10:51:33;;;;;;;4.82;3.13;;;21.00;52.80;;;;;;5011993;28;20121;-75
2021/07/17 10:54:06;;;;;;;6.68;3.15;;;21.10;53.50;;;;;;5012010;28;20441;-77
2021/07/17 10:56:35;;;;;;;5.00;2.85;;;21.10;51.70;;;;;;5010790;28;20041;-75
2021/07/17 10:59:10;;;;;;;5.10;3.10;;;21.20;52.40;;;;;;5011745;28;20030;-74
2021/07/17 11:01:56;;;;;;;4.38;2.95;;;21.20;51.20;;;;;;5011658;28;20030;-75
2021/07/17 11:04:44;;;;;;;4.80;3.42;;;21.40;51.30;;;;;;5012069;28;20036;-75
2021/07/17 11:07:16;;;;;;;4.90;3.28;;;21.40;51.20;;;;;;5012032;28;20021;-74
2021/07/17 11:09:51;;;;;;;4.70;3.08;;;21.40;50.10;;;;;;5013674;28;20029;-74
2021/07/17 11:12:18;;;;;;;5.50;3.53;;;21.40;49.90;;;;;;5010213;28;20052;-75
2021/07/17 11:14:44;;;;;;;5.80;3.25;;;21.50;49.70;;;;;;5011491;28;20025;-74
2021/07/17 11:17:09;;;;;;;6.30;3.40;;;21.60;50.90;;;;;;5011368;28;20494;-75
2021/07/17 11:19:36;;;;;;;5.32;3.63;;;21.60;49.70;;;;;;5009754;28;20022;-74
2021/07/17 11:22:13;;;;;;;6.03;3.33;;;21.60;49.30;;;;;;5013578;28;20068;-74
2021/07/17 11:24:40;;;;;;;5.47;3.70;;;21.60;48.60;;;;;;5013053;28;20498;-74
2021/07/17 11:27:15;;;;;;;5.75;4.00;;;21.70;49.60;;;;;;5011538;28;20056;-74
2021/07/17 11:29:44;;;;;;;6.00;3.90;;;21.80;49.20;;;;;;5010019;28;20045;-75
2021/07/17 11:32:14;;;;;;;4.75;3.58;;;21.80;48.10;;;;;;5010731;28;20473;-74
2021/07/17 11:34:45;;;;;;;7.03;4.05;;;21.80;48.80;;;;;;5011097;28;20031;-75
2021/07/17 11:37:13;;;;;;;8.75;4.13;;;21.70;48.90;;;;;;5013311;28;20014;-74
2021/07/17 11:39:42;;;;;;;4.95;3.65;;;21.80;49.60;;;;;;5011530;28;20033;-75
2021/07/17 11:42:11;;;;;;;6.47;3.60;;;21.90;50.20;;;;;;5011011;28;20085;-75
2021/07/17 11:44:45;;;;;;;6.50;4.20;;;22.00;49.80;;;;;;5011143;28;20076;-75
2021/07/17 11:47:14;;;;;;;5.88;3.95;;;22.10;49.60;;;;;;5010714;28;20054;-74
2021/07/17 11:49:42;;;;;;;5.72;3.88;;;22.10;49.00;;;;;;5009290;28;20037;-75
2021/07/17 11:52:12;;;;;;;5.25;3.85;;;22.10;48.90;;;;;;5012915;28;20022;-74
2021/07/17 11:54:39;;;;;;;7.20;4.32;;;22.10;49.40;;;;;;5012426;28;20064;-74
2021/07/17 11:57:07;;;;;;;5.80;4.07;;;22.20;50.60;;;;;;5010799;28;20467;-74
2021/07/17 11:59:35;;;;;;;6.38;3.78;;;22.20;50.30;;;;;;5010364;28;20026;-75
2021/07/17 12:02:12;;;;;;;6.15;3.72;;;22.20;51.10;;;;;;5010713;28;20026;-76
2021/07/17 12:04:49;;;;;;;4.57;3.85;;;22.20;50.30;;;;;;5010814;28;20065;-76
2021/07/17 12:07:23;;;;;;;7.28;4.18;;;22.30;50.00;;;;;;5012041;28;20467;-75
2021/07/17 12:09:52;;;;;;;5.72;3.85;;;22.30;49.90;;;;;;5014190;28;20025;-75
2021/07/17 12:12:21;;;;;;;4.43;3.60;;;22.30;50.60;;;;;;5008987;28;20080;-74
2021/07/17 12:14:55;;;;;;;7.20;3.90;;;22.40;49.90;;;;;;5009399;28;20045;-75
2021/07/17 12:17:24;;;;;;;6.78;4.25;;;22.40;49.90;;;;;;5010090;28;20026;-74
2021/07/17 12:20:11;;;;;;;5.03;3.92;;;22.50;49.80;;;;;;5009948;28;20434;-75
2021/07/17 12:22:44;;;;;;;7.20;4.50;;;22.60;49.80;;;;;;4995116;28;20026;-74
2021/07/17 12:25:16;;;;;;;8.30;4.35;;;22.60;49.10;;;;;;5012431;28;20053;-74
2021/07/17 12:27:58;;;;;;;5.55;3.95;;;22.60;48.90;;;;;;5012145;28;20112;-74
2021/07/17 12:30:26;;;;;;;6.35;3.90;;;22.70;48.70;;;;;;5011245;28;20046;-75
2021/07/17 12:32:52;;;;;;;5.95;3.90;;;22.70;49.40;;;;;;5009804;28;20025;-75
2021/07/17 12:35:24;;;;;;;6.90;4.28;;;22.80;49.60;;;;;;5010060;28;20096;-74
2021/07/17 12:37:51;;;;;;;4.88;3.70;;;22.90;49.40;;;;;;5008713;28;20061;-75
2021/07/17 12:40:17;;;;;;;6.75;4.00;;;22.80;48.40;;;;;;5010818;28;20030;-74
2021/07/17 12:42:45;;;;;;;4.50;3.90;;;22.90;48.50;;;;;;5011940;28;20112;-74
2021/07/17 12:45:20;;;;;;;5.10;3.70;;;23.00;49.20;;;;;;5009802;28;20021;-74
2021/07/17 12:47:51;;;;;;;6.57;3.97;;;23.00;49.00;;;;;;5008974;28;20064;-74
2021/07/17 12:50:22;;;;;;;8.73;4.40;;;23.10;49.20;;;;;;5008227;28;20041;-74